Time;durP1;ratioP1;P1;durP2;ratioP2;P2;SDS_P1;SDS_P2;PMS_P1;PMS_P2;Temp;Humidity;BMP_temperature;BMP_pressure;BME280_temperature;BME280_humidity;BME280_pressure;Samples;Min_cycle;Max_cycle;Signal;HPM_P1;HPM_P2
2022/03/07 00:01:44;;;;;;;29.10;18.50;;;;;;;-0.76;60.65;101007.54;88293;1274;82846;-81
2022/03/07 00:03:54;;;;;;;31.10;19.20;;;;;;;-0.76;60.86;101007.35;88284;1273;99626;-79
2022/03/07 00:06:04;;;;;;;28.70;18.40;;;;;;;-0.77;60.83;101004.98;88231;1273;89311;-60
2022/03/07 00:08:14;;;;;;;28.20;17.30;;;;;;;-0.78;60.88;101007.14;88289;1274;94052;-60
2022/03/07 00:10:24;;;;;;;27.60;17.70;;;;;;;-0.77;60.90;100997.35;88249;1273;79564;-61
2022/03/07 00:12:32;;;;;;;26.50;17.50;;;;;;;-0.75;60.86;100997.21;88276;1273;83271;-60
2022/03/07 00:14:41;;;;;;;30.70;18.60;;;;;;;-0.74;61.02;100998.72;88263;1273;99785;-80
2022/03/07 00:16:50;;;;;;;28.90;18.00;;;;;;;-0.75;60.93;100990.66;88281;1273;89217;-80
2022/03/07 00:18:59;;;;;;;28.40;17.90;;;;;;;-0.75;61.13;100986.41;88286;1274;93266;-80
2022/03/07 00:21:10;;;;;;;27.00;17.20;;;;;;;-0.73;61.22;100988.78;88271;1273;79013;-60
2022/03/07 00:23:19;;;;;;;27.80;18.20;;;;;;;-0.73;61.21;100991.64;88275;1273;83701;-61
2022/03/07 00:25:28;;;;;;;27.50;17.20;;;;;;;-0.77;61.31;100994.88;88263;1273;99195;-60
2022/03/07 00:27:38;;;;;;;29.60;18.00;;;;;;;-0.78;61.41;101001.14;88274;1274;85868;-60
2022/03/07 00:29:46;;;;;;;27.90;17.80;;;;;;;-0.77;61.42;101002.35;88254;1273;94962;-80
2022/03/07 00:31:56;;;;;;;28.80;18.70;;;;;;;-0.80;61.52;101005.90;88281;1273;78402;-81
2022/03/07 00:34:08;;;;;;;29.50;17.90;;;;;;;-0.80;61.61;101004.51;88295;1274;83390;-80
2022/03/07 00:36:18;;;;;;;26.60;18.30;;;;;;;-0.78;61.58;101006.29;88252;1273;99178;-61
2022/03/07 00:38:28;;;;;;;27.40;18.30;;;;;;;-0.76;61.39;101006.64;88277;1273;87269;-61
2022/03/07 00:40:37;;;;;;;26.70;17.20;;;;;;;-0.72;61.40;101005.19;88279;1273;94651;-80
2022/03/07 00:42:47;;;;;;;30.60;18.50;;;;;;;-0.68;61.50;101010.02;88353;1274;78289;-80
2022/03/07 00:44:57;;;;;;;26.90;18.10;;;;;;;-0.63;61.72;101005.98;88318;1273;81057;-80
2022/03/07 00:47:10;;;;;;;29.60;17.70;;;;;;;-0.57;61.65;101003.79;88362;1273;100697;-79
2022/03/07 00:49:19;;;;;;;21.30;14.00;;;;;;;-0.52;61.74;100997.06;88416;1274;87293;-60
2022/03/07 00:51:29;;;;;;;28.10;17.40;;;;;;;-0.47;61.65;100997.29;88249;1273;94492;-59
2022/03/07 00:53:38;;;;;;;25.90;16.10;;;;;;;-0.43;61.57;100993.61;88285;1273;78035;-60
2022/03/07 00:55:47;;;;;;;28.60;17.70;;;;;;;-0.43;61.47;100993.61;88290;1273;83165;-60
2022/03/07 00:57:56;;;;;;;26.80;17.60;;;;;;;-0.45;61.46;100993.43;88267;1274;98463;-61
2022/03/07 01:00:07;;;;;;;28.00;17.20;;;;;;;-0.46;61.37;100987.98;88279;1273;88334;-61
2022/03/07 01:02:20;;;;;;;28.10;17.70;;;;;;;-0.47;61.43;100986.30;88275;1273;95454;-61
2022/03/07 01:04:29;;;;;;;29.80;17.50;;;;;;;-0.50;61.33;100986.35;88291;1273;77176;-60
2022/03/07 01:06:37;;;;;;;29.40;17.60;;;;;;;-0.51;61.30;100986.92;88287;1273;81924;-60
2022/03/07 01:08:49;;;;;;;29.10;17.00;;;;;;;-0.52;61.50;100981.38;88266;1273;98269;-61
2022/03/07 01:10:59;;;;;;;28.50;17.80;;;;;;;-0.51;61.15;100975.81;88346;1273;88725;-81
2022/03/07 01:13:09;;;;;;;27.90;16.70;;;;;;;-0.53;61.19;100972.25;88286;1273;94934;-80
2022/03/07 01:15:20;;;;;;;25.90;17.30;;;;;;;-0.56;61.21;100969.94;88405;1273;79916;-80
2022/03/07 01:17:30;;;;;;;27.40;16.90;;;;;;;-0.56;61.30;100964.33;88378;1273;81543;-78
2022/03/07 01:19:39;;;;;;;24.00;16.20;;;;;;;-0.58;61.53;100960.05;88338;1273;100228;-80
2022/03/07 01:21:51;;;;;;;25.30;15.30;;;;;;;-0.58;61.52;100955.25;88328;1273;88816;-80
2022/03/07 01:24:00;;;;;;;20.80;15.10;;;;;;;-0.59;61.69;100958.48;88309;1273;93932;-79
2022/03/07 01:26:11;;;;;;;25.70;15.40;;;;;;;-0.60;61.49;100958.19;88254;1273;76752;-60
2022/03/07 01:28:20;;;;;;;26.20;16.00;;;;;;;-0.62;61.64;100958.83;88245;1273;79969;-67
2022/03/07 01:30:29;;;;;;;24.00;14.90;;;;;;;-0.63;61.35;100962.42;88245;1273;99016;-60
2022/03/07 01:32:39;;;;;;;23.30;14.40;;;;;;;-0.64;61.55;100961.62;88297;1274;86810;-60
2022/03/07 01:34:52;;;;;;;22.90;15.30;;;;;;;-0.67;61.76;100959.69;88320;1274;94812;-80
2022/03/07 01:37:02;;;;;;;23.80;14.40;;;;;;;-0.69;61.68;100955.76;88323;1274;77630;-79
2022/03/07 01:39:11;;;;;;;22.10;14.40;;;;;;;-0.69;61.81;100951.52;88376;1274;81396;-60
2022/03/07 01:41:20;;;;;;;24.20;15.30;;;;;;;-0.68;61.76;100950.08;88298;1274;97628;-60
2022/03/07 01:43:29;;;;;;;22.20;14.60;;;;;;;-0.69;61.67;100948.19;88292;1274;87969;-60
2022/03/07 01:45:44;;;;;;;23.30;13.50;;;;;;;-0.69;61.76;100954.23;88253;1272;94559;-60
2022/03/07 01:47:54;;;;;;;21.70;13.80;;;;;;;-0.72;61.81;100955.14;88316;1272;79572;-60
2022/03/07 01:50:03;;;;;;;27.00;16.70;;;;;;;-0.75;61.75;100951.08;88354;1274;80948;-81
2022/03/07 01:52:13;;;;;;;26.50;15.20;;;;;;;-0.77;62.06;100950.87;88305;1274;98249;-79
2022/03/07 01:54:24;;;;;;;24.50;15.40;;;;;;;-0.79;62.13;100956.45;88340;1274;88434;-61
2022/03/07 01:56:35;;;;;;;23.70;14.50;;;;;;;-0.80;62.18;100955.69;88315;1274;96028;-60
2022/03/07 01:58:44;;;;;;;21.00;13.80;;;;;;;-0.83;62.12;100956.94;88294;1274;78846;-59
2022/03/07 02:00:56;;;;;;;21.10;13.90;;;;;;;-0.84;62.22;100952.05;88339;1274;83036;-60
2022/03/07 02:03:09;;;;;;;21.30;13.30;;;;;;;-0.84;62.07;100950.80;88295;1274;98559;-60
2022/03/07 02:05:18;;;;;;;21.10;13.40;;;;;;;-0.85;62.05;100947.90;88320;1274;87844;-80
2022/03/07 02:07:30;;;;;;;22.40;12.40;;;;;;;-0.85;62.03;100945.41;88359;1274;94833;-80
2022/03/07 02:09:39;;;;;;;19.10;12.10;;;;;;;-0.87;62.06;100939.02;88333;1274;78472;-60
2022/03/07 02:11:48;;;;;;;18.90;12.30;;;;;;;-0.85;62.20;100933.71;88280;1274;81656;-60
2022/03/07 02:13:57;;;;;;;17.60;10.60;;;;;;;-0.85;62.08;100932.48;88273;1273;99554;-60
2022/03/07 02:16:07;;;;;;;17.20;11.10;;;;;;;-0.85;62.09;100932.86;88351;1274;89344;-80
2022/03/07 02:18:20;;;;;;;16.10;11.10;;;;;;;-0.83;62.11;100933.08;88327;1273;92394;-80
2022/03/07 02:20:29;;;;;;;20.30;12.00;;;;;;;-0.81;62.36;100934.51;88316;1274;80080;-60
2022/03/07 02:22:38;;;;;;;20.50;12.10;;;;;;;-0.82;62.36;100940.08;88298;1274;83223;-59
2022/03/07 02:24:49;;;;;;;22.00;12.00;;;;;;;-0.81;62.12;100936.31;88304;1272;98626;-60
2022/03/07 02:27:05;;;;;;;19.30;12.30;;;;;;;-0.82;62.11;100929.98;88322;1274;87518;-60
2022/03/07 02:29:14;;;;;;;22.40;11.80;;;;;;;-0.82;62.38;100930.48;88297;1272;94337;-79
2022/03/07 02:31:29;;;;;;;21.50;11.70;;;;;;;-0.80;62.35;100928.97;88287;1273;77649;-80
2022/03/07 02:33:39;;;;;;;18.60;11.60;;;;;;;-0.79;62.34;100922.75;88303;1273;81183;-79
2022/03/07 02:35:48;;;;;;;17.50;11.20;;;;;;;-0.80;62.30;100924.37;88250;1274;97865;-61
2022/03/07 02:37:57;;;;;;;16.60;10.30;;;;;;;-0.79;62.41;100916.90;88244;1274;89500;-60
2022/03/07 02:40:07;;;;;;;17.40;10.80;;;;;;;-0.79;62.13;100911.20;88273;1273;95181;-60
2022/03/07 02:42:16;;;;;;;15.10;10.00;;;;;;;-0.78;62.28;100914.33;88259;1273;79463;-60
2022/03/07 02:44:26;;;;;;;16.50;10.40;;;;;;;-0.77;62.45;100915.36;88274;1273;80542;-80
2022/03/07 02:46:35;;;;;;;16.50;10.40;;;;;;;-0.76;62.58;100917.38;88302;1273;100070;-80
2022/03/07 02:48:45;;;;;;;19.50;10.80;;;;;;;-0.76;62.52;100909.61;88296;1273;88753;-80
2022/03/07 02:50:57;;;;;;;17.90;10.90;;;;;;;-0.75;62.24;100899.96;88310;1273;95278;-80
2022/03/07 02:53:07;;;;;;;17.30;11.10;;;;;;;-0.73;62.32;100904.09;88251;1273;81161;-81
2022/03/07 02:55:16;;;;;;;19.90;11.50;;;;;;;-0.73;62.46;100907.94;88354;1273;82325;-80
2022/03/07 02:57:24;;;;;;;19.70;11.10;;;;;;;-0.71;62.75;100904.10;88290;1273;99447;-79
2022/03/07 02:59:33;;;;;;;18.40;10.50;;;;;;;-0.68;62.73;100904.77;88288;1274;87438;-59
2022/03/07 03:01:44;;;;;;;16.50;10.10;;;;;;;-0.65;62.58;100906.67;88286;1274;93734;-60
2022/03/07 03:03:54;;;;;;;15.30;10.40;;;;;;;-0.60;62.77;100911.67;88251;1273;79165;-59
2022/03/07 03:06:03;;;;;;;15.80;9.50;;;;;;;-0.56;62.84;100911.24;88304;1273;82086;-60
2022/03/07 03:08:12;;;;;;;17.00;10.70;;;;;;;-0.53;62.84;100906.59;88284;1273;97978;-60
2022/03/07 03:10:22;;;;;;;17.60;10.20;;;;;;;-0.48;63.01;100907.86;88278;1274;87839;-61
2022/03/07 03:12:34;;;;;;;15.30;9.60;;;;;;;-0.46;62.95;100908.41;88293;1273;95644;-60
2022/03/07 03:14:49;;;;;;;13.20;9.70;;;;;;;-0.45;62.80;100904.47;88272;1273;80181;-60
2022/03/07 03:16:58;;;;;;;12.80;8.40;;;;;;;-0.44;62.87;100905.95;88252;1273;83637;-61
2022/03/07 03:19:08;;;;;;;9.80;7.80;;;;;;;-0.46;62.73;100903.78;88282;1273;99696;-60
2022/03/07 03:21:20;;;;;;;13.00;8.00;;;;;;;-0.49;62.76;100909.67;88227;1273;88111;-60
2022/03/07 03:23:30;;;;;;;13.90;8.10;;;;;;;-0.51;62.94;100909.11;88246;1273;95032;-60
2022/03/07 03:25:42;;;;;;;11.70;7.60;;;;;;;-0.51;62.83;100906.46;88317;1273;77796;-80
2022/03/07 03:27:51;;;;;;;13.00;8.50;;;;;;;-0.52;62.88;100909.90;88267;1273;81483;-80
2022/03/07 03:30:00;;;;;;;12.20;7.70;;;;;;;-0.56;62.82;100912.09;88249;1273;99904;-60
2022/03/07 03:32:10;;;;;;;15.60;7.60;;;;;;;-0.56;62.71;100912.62;88289;1273;88584;-60
2022/03/07 03:34:19;;;;;;;11.00;7.50;;;;;;;-0.59;62.78;100911.25;88235;1273;92068;-80
2022/03/07 03:36:32;;;;;;;11.70;8.20;;;;;;;-0.62;63.00;100912.71;88260;1273;79210;-79
2022/03/07 03:38:44;;;;;;;11.00;7.30;;;;;;;-0.65;63.07;100908.61;88077;1273;81179;-80
2022/03/07 03:40:53;;;;;;;12.70;7.70;;;;;;;-0.66;63.00;100903.92;88329;1273;99303;-80
2022/03/07 03:43:06;;;;;;;15.60;8.00;;;;;;;-0.70;63.15;100903.86;88300;1273;88648;-80
2022/03/07 03:45:16;;;;;;;12.20;7.70;;;;;;;-0.75;63.28;100902.63;88222;1273;94455;-60
2022/03/07 03:47:25;;;;;;;14.80;8.50;;;;;;;-0.78;63.37;100902.45;88292;1273;76900;-59
2022/03/07 03:49:34;;;;;;;10.50;8.20;;;;;;;-0.84;63.47;100898.30;88313;1273;80023;-59
2022/03/07 03:51:44;;;;;;;13.10;8.20;;;;;;;-0.88;63.31;100899.69;88284;1273;100239;-60
2022/03/07 03:53:53;;;;;;;15.00;8.30;;;;;;;-0.92;63.42;100897.77;88265;1273;88590;-59
2022/03/07 03:56:02;;;;;;;12.80;8.40;;;;;;;-0.96;63.19;100896.88;88281;1273;95153;-61
2022/03/07 03:58:11;;;;;;;15.00;8.10;;;;;;;-0.99;63.41;100894.20;88273;1274;79510;-59
2022/03/07 04:00:23;;;;;;;12.10;7.20;;;;;;;-1.02;63.52;100895.11;88384;1273;82718;-79
2022/03/07 04:02:33;;;;;;;13.90;8.10;;;;;;;-1.07;63.56;100893.00;88568;1273;99331;-80
2022/03/07 04:04:43;;;;;;;12.40;8.70;;;;;;;-1.12;63.87;100889.99;88493;1273;89234;-59
2022/03/07 04:06:52;;;;;;;14.70;8.40;;;;;;;-1.15;63.97;100896.05;88239;1273;92956;-59
2022/03/07 04:09:22;;;;;;;13.10;9.10;;;;;;;-1.22;64.19;100890.29;88243;1273;79232;-59
2022/03/07 04:11:31;;;;;;;13.10;9.00;;;;;;;-1.26;63.72;100894.12;88296;1273;81759;-80
2022/03/07 04:13:40;;;;;;;16.60;10.40;;;;;;;-1.28;63.91;100893.55;88260;1273;99503;-80
2022/03/07 04:15:51;;;;;;;13.70;9.30;;;;;;;-1.32;64.27;100898.40;88313;1273;88161;-81
2022/03/07 04:18:01;;;;;;;13.20;8.50;;;;;;;-1.33;64.52;100896.91;88246;1273;92963;-80
2022/03/07 04:20:14;;;;;;;12.20;8.20;;;;;;;-1.35;64.68;100891.70;88262;1273;81000;-60
2022/03/07 04:22:26;;;;;;;10.80;7.80;;;;;;;-1.35;64.78;100895.60;88295;1273;81901;-60
2022/03/07 04:24:35;;;;;;;15.10;8.10;;;;;;;-1.36;64.42;100893.90;88288;1273;99783;-60
2022/03/07 04:26:48;;;;;;;13.40;7.90;;;;;;;-1.37;64.74;100896.08;88212;1273;87478;-61
2022/03/07 04:28:58;;;;;;;13.40;8.00;;;;;;;-1.41;64.74;100891.41;88255;1273;95524;-61
2022/03/07 04:31:07;;;;;;;13.10;7.60;;;;;;;-1.46;65.02;100897.54;88269;1273;80233;-60
2022/03/07 04:33:19;;;;;;;14.10;8.30;;;;;;;-1.52;64.78;100898.50;88309;1272;83029;-60
2022/03/07 04:35:29;;;;;;;12.80;8.80;;;;;;;-1.57;65.19;100899.70;88336;1274;100047;-80
2022/03/07 04:37:40;;;;;;;16.30;9.00;;;;;;;-1.61;65.05;100896.14;88330;1274;89097;-80
2022/03/07 04:39:49;;;;;;;13.30;8.50;;;;;;;-1.62;65.19;100894.78;88288;1274;95024;-60
2022/03/07 04:41:58;;;;;;;14.90;8.60;;;;;;;-1.66;65.39;100890.80;88318;1271;77840;-61
2022/03/07 04:44:09;;;;;;;13.40;8.20;;;;;;;-1.70;65.40;100885.92;88301;1274;83109;-61
2022/03/07 04:46:20;;;;;;;11.50;8.40;;;;;;;-1.74;65.50;100890.05;88304;1274;98736;-61
2022/03/07 04:48:29;;;;;;;14.40;9.20;;;;;;;-1.77;66.02;100893.27;88317;1274;88225;-61
2022/03/07 04:50:38;;;;;;;12.60;8.50;;;;;;;-1.80;65.84;100891.67;88290;1274;94736;-80
2022/03/07 04:52:47;;;;;;;13.60;8.90;;;;;;;-1.84;65.97;100892.98;88314;1274;80041;-79
2022/03/07 04:54:56;;;;;;;15.60;8.70;;;;;;;-1.85;65.97;100894.15;88320;1274;80818;-79
2022/03/07 04:57:09;;;;;;;14.10;9.10;;;;;;;-1.88;66.09;100893.44;88297;1272;98415;-80
2022/03/07 04:59:18;;;;;;;13.30;9.00;;;;;;;-1.91;66.07;100893.65;88320;1274;87533;-60
2022/03/07 05:01:27;;;;;;;16.90;10.10;;;;;;;-1.92;66.40;100887.14;88299;1274;94557;-61
2022/03/07 05:03:35;;;;;;;14.90;10.20;;;;;;;-1.92;66.39;100885.23;88251;1274;79246;-61
2022/03/07 05:05:44;;;;;;;15.60;9.70;;;;;;;-1.91;66.81;100885.85;88343;1274;82854;-60
2022/03/07 05:07:54;;;;;;;16.30;10.20;;;;;;;-1.89;66.84;100890.11;88323;1274;100077;-61
2022/03/07 05:10:08;;;;;;;19.70;10.80;;;;;;;-1.83;67.00;100886.60;88315;1274;91308;-79
2022/03/07 05:12:17;;;;;;;18.10;10.70;;;;;;;-1.75;67.15;100881.70;88295;1274;95533;-79
2022/03/07 05:14:30;;;;;;;18.50;10.50;;;;;;;-1.69;67.09;100878.65;88333;1274;80023;-60
2022/03/07 05:16:38;;;;;;;16.80;10.10;;;;;;;-1.64;67.02;100879.39;88343;1274;82502;-60
2022/03/07 05:18:49;;;;;;;17.30;10.60;;;;;;;-1.60;66.98;100880.88;88266;1274;98032;-61
2022/03/07 05:20:59;;;;;;;19.50;11.20;;;;;;;-1.58;67.33;100878.76;88323;1274;87603;-61
2022/03/07 05:23:08;;;;;;;19.60;11.60;;;;;;;-1.58;67.26;100873.10;88283;1274;91531;-62
2022/03/07 05:25:20;;;;;;;18.90;11.50;;;;;;;-1.55;67.23;100870.10;88301;1273;79533;-62
2022/03/07 05:27:32;;;;;;;17.50;11.20;;;;;;;-1.53;67.12;100865.02;88300;1274;83253;-63
2022/03/07 05:29:41;;;;;;;21.10;11.30;;;;;;;-1.51;67.37;100863.99;88329;1272;98162;-62
2022/03/07 05:31:50;;;;;;;20.00;11.80;;;;;;;-1.52;67.33;100864.98;88325;1274;87505;-62
2022/03/07 05:33:59;;;;;;;21.00;11.70;;;;;;;-1.53;67.08;100866.05;88316;1273;93987;-61
2022/03/07 05:36:09;;;;;;;19.20;11.00;;;;;;;-1.53;67.23;100863.61;88312;1274;79318;-79
2022/03/07 05:38:18;;;;;;;17.80;11.70;;;;;;;-1.54;67.55;100863.86;88305;1274;83297;-79
2022/03/07 05:40:28;;;;;;;21.70;12.30;;;;;;;-1.55;67.42;100862.88;88308;1274;99257;-79
2022/03/07 05:42:38;;;;;;;20.80;12.10;;;;;;;-1.54;67.55;100862.41;88324;1274;87194;-78
2022/03/07 05:44:48;;;;;;;20.60;12.70;;;;;;;-1.49;67.60;100866.15;88336;1274;96095;-80
2022/03/07 05:47:01;;;;;;;20.80;12.80;;;;;;;-1.45;67.63;100866.64;88304;1272;78630;-80
2022/03/07 05:49:13;;;;;;;24.20;13.40;;;;;;;-1.36;68.11;100869.67;88311;1273;80104;-77
2022/03/07 05:51:24;;;;;;;19.80;12.70;;;;;;;-1.22;68.11;100868.57;88311;1274;97228;-78
2022/03/07 05:53:33;;;;;;;23.20;14.40;;;;;;;-0.97;68.30;100867.05;88327;1274;88969;-79
2022/03/07 05:55:45;;;;;;;24.10;15.10;;;;;;;-0.29;67.71;100864.18;88277;1274;95207;-79
2022/03/07 05:57:59;;;;;;;26.90;15.40;;;;;;;0.36;67.24;100861.52;88278;1273;76173;-78
2022/03/07 06:00:09;;;;;;;;;;;;;;;0.65;66.56;100858.67;88345;1274;82976;-78
2022/03/07 06:02:19;;;;;;;26.10;16.70;;;;;;;1.07;66.47;100861.81;88302;1274;98734;-71
2022/03/07 06:04:28;;;;;;;28.80;16.90;;;;;;;2.09;66.34;100855.39;88338;1274;88647;-72
2022/03/07 06:06:38;;;;;;;27.40;17.20;;;;;;;3.42;66.04;100850.73;88282;1273;95088;-75
2022/03/07 06:08:47;;;;;;;27.60;16.60;;;;;;;4.73;65.27;100847.14;88297;1274;78710;-73
2022/03/07 06:10:55;;;;;;;28.80;15.40;;;;;;;5.65;64.42;100844.27;88317;1274;81214;-74
2022/03/07 06:13:05;;;;;;;32.80;16.30;;;;;;;6.46;63.20;100843.39;88303;1274;97886;-77
2022/03/07 06:15:15;;;;;;;31.00;17.40;;;;;;;6.84;61.24;100844.80;88341;1274;88204;-60
2022/03/07 06:17:28;;;;;;;29.20;17.70;;;;;;;6.38;59.79;100846.52;88292;1274;95585;-61
2022/03/07 06:19:37;;;;;;;31.50;15.80;;;;;;;5.63;59.31;100855.20;88342;1274;80197;-64
2022/03/07 06:21:47;;;;;;;22.20;14.30;;;;;;;5.48;59.85;100854.45;88309;1274;82887;-60
2022/03/07 06:23:59;;;;;;;17.90;12.10;;;;;;;6.40;60.15;100852.44;88314;1273;99930;-60
2022/03/07 06:26:11;;;;;;;14.50;10.30;;;;;;;7.51;58.97;100850.35;88296;1274;89495;-75
2022/03/07 06:28:21;;;;;;;13.70;9.80;;;;;;;7.27;58.00;100853.05;88319;1274;93997;-61
2022/03/07 06:30:30;;;;;;;14.10;10.20;;;;;;;7.62;58.21;100850.25;88303;1274;78744;-62
2022/03/07 06:32:40;;;;;;;15.30;10.20;;;;;;;8.29;58.15;100847.33;88294;1273;81875;-60
2022/03/07 06:34:49;;;;;;;14.80;10.30;;;;;;;8.42;57.03;100849.14;88316;1274;100383;-61
2022/03/07 06:37:02;;;;;;;15.70;10.20;;;;;;;7.94;56.28;100855.69;88170;1274;90512;-61
2022/03/07 06:39:14;;;;;;;13.60;10.00;;;;;;;7.29;55.87;100858.23;88318;1274;94436;-63
2022/03/07 06:41:23;;;;;;;15.20;9.00;;;;;;;6.41;55.70;100865.16;88301;1274;79964;-60
2022/03/07 06:43:33;;;;;;;14.20;9.50;;;;;;;5.75;56.07;100863.98;88310;1273;83155;-61
2022/03/07 06:45:42;;;;;;;15.10;10.10;;;;;;;5.23;56.73;100862.72;88202;1273;101351;-80
2022/03/07 06:47:52;;;;;;;15.40;9.90;;;;;;;4.90;56.61;100864.77;88339;1274;88110;-79
2022/03/07 06:50:01;;;;;;;16.60;10.10;;;;;;;4.51;57.03;100868.94;88304;1273;95705;-78
2022/03/07 06:52:14;;;;;;;15.90;9.80;;;;;;;4.26;57.25;100868.88;88345;1273;78914;-76
2022/03/07 06:54:26;;;;;;;15.50;9.30;;;;;;;3.98;57.37;100874.83;88297;1274;81394;-60
2022/03/07 06:56:39;;;;;;;14.90;9.90;;;;;;;3.72;57.62;100879.40;88290;1274;99713;-61
2022/03/07 06:58:48;;;;;;;16.00;9.40;;;;;;;3.55;58.20;100883.90;88296;1274;87199;-61
2022/03/07 07:00:58;;;;;;;14.40;9.50;;;;;;;3.47;58.46;100887.83;88279;1274;95743;-78
2022/03/07 07:03:11;;;;;;;18.40;9.50;;;;;;;3.47;58.66;100887.83;88272;1274;79584;-78
2022/03/07 07:05:22;;;;;;;12.40;9.50;;;;;;;3.50;58.83;100887.73;88346;1274;82721;-78
2022/03/07 07:07:31;;;;;;;15.50;9.60;;;;;;;3.48;59.10;100888.30;88326;1274;98596;-73
2022/03/07 07:09:41;;;;;;;16.20;9.50;;;;;;;3.41;59.36;100889.10;88319;1272;87978;-77
2022/03/07 07:11:50;;;;;;;15.40;9.80;;;;;;;3.40;59.62;100888.42;88294;1274;94958;-79
2022/03/07 07:14:01;;;;;;;15.00;9.60;;;;;;;3.61;59.85;100887.02;88330;1274;75811;-78
2022/03/07 07:16:12;;;;;;;15.60;9.90;;;;;;;4.00;59.99;100881.20;88292;1274;83266;-78
2022/03/07 07:18:25;;;;;;;14.80;10.80;;;;;;;4.84;60.00;100877.84;88339;1273;99400;-60
2022/03/07 07:20:34;;;;;;;17.90;10.90;;;;;;;6.02;59.72;100880.49;88332;1274;89215;-61
2022/03/07 07:22:44;;;;;;;16.10;9.80;;;;;;;6.69;58.94;100875.06;88288;1274;94190;-61
2022/03/07 07:24:53;;;;;;;14.80;9.50;;;;;;;7.35;58.25;100873.55;88337;1274;77855;-61
2022/03/07 07:27:03;;;;;;;13.20;9.70;;;;;;;7.91;57.14;100875.69;88263;1273;82717;-61
2022/03/07 07:29:12;;;;;;;16.30;9.40;;;;;;;8.17;56.43;100874.19;88241;1273;100663;-68
2022/03/07 07:31:21;;;;;;;14.00;8.90;;;;;;;8.59;56.53;100867.20;88301;1274;89789;-61
2022/03/07 07:33:33;;;;;;;12.90;9.50;;;;;;;9.67;56.02;100864.85;88273;1272;96124;-61
2022/03/07 07:35:42;;;;;;;13.60;9.00;;;;;;;10.71;54.69;100862.16;88326;1274;78226;-61
2022/03/07 07:37:52;;;;;;;14.10;8.70;;;;;;;11.55;53.67;100866.20;88338;1274;83551;-61
2022/03/07 07:40:03;;;;;;;12.90;8.20;;;;;;;12.61;53.03;100862.39;88290;1272;99361;-61
2022/03/07 07:42:12;;;;;;;12.80;8.70;;;;;;;13.51;52.28;100861.80;88319;1274;90002;-59
2022/03/07 07:44:21;;;;;;;12.10;8.20;;;;;;;14.26;50.94;100860.61;88272;1274;93207;-60
2022/03/07 07:46:30;;;;;;;14.70;8.90;;;;;;;14.70;50.06;100857.58;88283;1272;78607;-60
2022/03/07 07:48:46;;;;;;;12.20;8.40;;;;;;;15.20;48.90;100853.58;88321;1274;81326;-59
2022/03/07 07:50:55;;;;;;;12.70;7.40;;;;;;;15.15;47.41;100858.13;88317;1274;99648;-78
2022/03/07 07:53:12;;;;;;;9.60;7.40;;;;;;;13.89;46.82;100859.48;88994;1261;86054;-78
2022/03/07 07:55:22;;;;;;;10.70;7.90;;;;;;;14.03;46.46;100863.08;88412;1271;92870;-78
2022/03/07 07:57:31;;;;;;;9.70;7.20;;;;;;;14.27;46.24;100858.70;88288;1274;77248;-84
2022/03/07 07:59:40;;;;;;;10.60;7.00;;;;;;;15.04;46.12;100857.64;88375;1271;80552;-79
2022/03/07 08:01:49;;;;;;;9.60;6.90;;;;;;;15.95;45.51;100860.16;88291;1274;99670;-79
2022/03/07 08:03:58;;;;;;;9.10;7.10;;;;;;;15.30;44.28;100856.97;88485;1271;88692;-60
2022/03/07 08:06:07;;;;;;;10.50;6.70;;;;;;;15.75;44.72;100856.41;88408;1271;94250;-60
2022/03/07 08:08:19;;;;;;;9.60;6.60;;;;;;;15.19;43.75;100857.24;88448;1271;79966;-79
2022/03/07 08:10:28;;;;;;;8.60;6.70;;;;;;;13.82;43.43;100858.42;88453;1271;81559;-79
2022/03/07 08:12:37;;;;;;;10.50;6.90;;;;;;;12.86;43.70;100857.97;88458;1271;97700;-60
2022/03/07 08:14:46;;;;;;;9.60;6.80;;;;;;;11.93;43.86;100862.78;88455;1271;89554;-60
2022/03/07 08:19:19;;;;;;;9.40;6.50;;;;;;;10.85;45.16;100859.05;84116;1267;3025519;-60
2022/03/07 08:21:28;;;;;;;10.00;6.30;;;;;;;12.00;44.96;100859.63;88205;1273;80332;-60
2022/03/07 08:23:37;;;;;;;9.50;6.60;;;;;;;13.62;44.59;100851.09;88208;1273;99851;-78
2022/03/07 08:25:46;;;;;;;8.30;6.30;;;;;;;14.94;44.03;100849.46;88240;1273;87657;-80
2022/03/07 08:27:56;;;;;;;9.20;7.10;;;;;;;16.05;43.58;100848.06;88215;1273;94223;-80
2022/03/07 08:30:15;;;;;;;8.00;6.00;;;;;;;16.57;42.00;100842.80;88170;1276;79125;-81
2022/03/07 08:32:23;;;;;;;8.60;6.00;;;;;;;16.84;41.46;100836.26;88180;1276;80681;-79
2022/03/07 08:34:32;;;;;;;8.30;6.30;;;;;;;17.10;41.41;100839.77;88141;1276;99781;-60
2022/03/07 08:36:44;;;;;;;7.70;5.70;;;;;;;17.16;40.81;100839.05;88173;1276;86851;-61
2022/03/07 08:38:56;;;;;;;8.80;5.60;;;;;;;15.83;39.92;100843.84;88148;1276;94523;-61
2022/03/07 08:41:08;;;;;;;7.50;5.60;;;;;;;14.57;39.75;100847.28;88199;1276;78187;-62
2022/03/07 08:43:17;;;;;;;7.80;5.50;;;;;;;13.71;40.20;100848.12;88140;1276;83174;-80
2022/03/07 08:45:27;;;;;;;6.80;5.20;;;;;;;12.95;40.84;100848.17;88160;1276;99158;-80
2022/03/07 08:47:37;;;;;;;8.40;5.40;;;;;;;12.45;41.33;100847.29;88186;1276;88611;-79
2022/03/07 08:49:46;;;;;;;6.50;4.40;;;;;;;12.68;41.98;100843.67;88188;1276;96049;-61
2022/03/07 08:51:58;;;;;;;7.90;4.30;;;;;;;13.00;41.76;100840.45;88157;1276;78323;-60
2022/03/07 08:54:07;;;;;;;7.60;4.00;;;;;;;12.63;41.65;100843.28;88188;1276;81598;-79
2022/03/07 08:56:19;;;;;;;6.90;4.50;;;;;;;12.11;41.64;100851.11;88164;1276;99529;-81
2022/03/07 08:58:28;;;;;;;9.50;5.10;;;;;;;11.32;41.96;100850.94;88168;1276;89704;-58
2022/03/07 09:00:37;;;;;;;8.30;5.40;;;;;;;10.84;42.59;100846.27;88127;1276;93757;-60
2022/03/07 09:02:49;;;;;;;7.00;5.00;;;;;;;10.67;42.95;100845.08;88165;1276;78990;-61
2022/03/07 09:05:01;;;;;;;9.70;5.50;;;;;;;10.40;43.29;100842.73;88166;1276;82994;-80
2022/03/07 09:07:13;;;;;;;8.00;5.10;;;;;;;10.02;43.60;100842.87;88157;1276;99322;-78
2022/03/07 09:09:23;;;;;;;7.70;4.50;;;;;;;9.74;44.00;100842.98;88202;1276;87602;-79
2022/03/07 09:11:32;;;;;;;8.40;5.30;;;;;;;9.35;44.34;100843.50;88155;1276;94015;-78
2022/03/07 09:13:41;;;;;;;6.10;4.60;;;;;;;9.01;44.67;100839.92;88165;1276;78668;-61
2022/03/07 09:15:50;;;;;;;8.70;5.60;;;;;;;8.71;45.04;100834.05;88077;1277;81691;-60
2022/03/07 09:17:59;;;;;;;7.70;5.10;;;;;;;8.35;45.74;100837.85;88195;1276;100110;-73
2022/03/07 09:20:13;;;;;;;8.40;5.60;;;;;;;8.08;45.96;100845.38;88160;1276;89471;-61
2022/03/07 09:22:22;;;;;;;7.20;4.60;;;;;;;7.91;46.29;100847.23;88177;1276;94790;-63
2022/03/07 09:24:31;;;;;;;10.80;5.70;;;;;;;7.65;46.62;100838.97;88192;1276;79170;-80
2022/03/07 09:26:40;;;;;;;9.10;6.30;;;;;;;7.59;46.96;100839.88;88199;1276;80923;-79
2022/03/07 09:28:49;;;;;;;8.60;5.20;;;;;;;7.52;47.50;100841.48;88195;1276;97966;-78
2022/03/07 09:30:58;;;;;;;8.80;4.90;;;;;;;7.52;47.44;100836.08;88168;1276;88617;-78
2022/03/07 09:33:07;;;;;;;7.50;5.60;;;;;;;7.38;47.94;100835.96;88155;1276;95446;-80
2022/03/07 09:35:17;;;;;;;10.30;5.40;;;;;;;7.30;48.26;100837.55;88182;1276;78745;-79
2022/03/07 09:37:27;;;;;;;12.10;6.70;;;;;;;7.35;48.18;100833.39;88202;1277;81967;-80
2022/03/07 09:39:37;;;;;;;12.00;5.90;;;;;;;7.47;48.13;100833.20;88193;1276;99347;-81
2022/03/07 09:41:46;;;;;;;8.50;5.20;;;;;;;7.18;48.35;100837.11;88175;1276;86499;-78
2022/03/07 09:43:56;;;;;;;12.30;6.90;;;;;;;7.01;48.77;100830.49;88204;1276;96005;-59
2022/03/07 09:46:06;;;;;;;11.40;6.60;;;;;;;6.93;49.07;100832.33;88161;1276;77809;-62
2022/03/07 09:48:16;;;;;;;8.60;5.70;;;;;;;6.98;49.27;100831.33;88109;1276;82866;-71
2022/03/07 09:50:26;;;;;;;8.50;5.10;;;;;;;6.96;49.21;100829.94;88095;1277;100158;-72
2022/03/07 09:52:38;;;;;;;9.80;5.60;;;;;;;6.82;49.25;100830.45;88109;1276;88848;-76
2022/03/07 09:54:47;;;;;;;8.90;6.20;;;;;;;6.75;49.57;100832.41;88080;1276;93970;-74
2022/03/07 09:56:57;;;;;;;9.80;6.20;;;;;;;6.83;49.70;100837.68;88085;1277;77240;-73
2022/03/07 09:59:07;;;;;;;8.80;5.00;;;;;;;6.96;49.93;100835.28;88152;1276;80883;-76
2022/03/07 10:01:19;;;;;;;12.80;6.10;;;;;;;7.04;50.16;100835.38;88090;1276;99103;-77